createdAt,value
2019-05-06T00:02:24.554Z,100269.81
2019-05-06T00:04:57.063Z,100266.22
2019-05-06T00:07:29.477Z,100266.35
2019-05-06T00:10:01.574Z,100265.31
2019-05-06T00:12:33.970Z,100265.10
2019-05-06T00:15:06.928Z,100264.63
2019-05-06T00:17:39.036Z,100265.86
2019-05-06T00:20:11.125Z,100268.16
2019-05-06T00:22:43.613Z,100271.09
2019-05-06T00:25:19.937Z,100268.30
2019-05-06T00:28:17.919Z,100268.30
2019-05-06T00:30:51.842Z,100269.70
2019-05-06T00:33:24.260Z,100268.30
2019-05-06T00:35:56.487Z,100269.48
2019-05-06T00:38:28.517Z,100264.04
2019-05-06T00:41:04.147Z,100278.13
2019-05-06T00:43:36.135Z,100288.09
2019-05-06T00:46:08.119Z,100285.03
2019-05-06T00:48:40.115Z,100286.30
2019-05-06T00:51:13.547Z,100284.20
2019-05-06T00:53:50.257Z,100278.90
2019-05-06T00:56:24.238Z,100274.94
2019-05-06T00:58:55.887Z,100271.29
2019-05-06T01:01:29.798Z,100266.80
2019-05-06T01:04:01.400Z,100260.36
2019-05-06T01:06:34.999Z,100259.60
2019-05-06T01:09:10.755Z,100261.13
2019-05-06T01:11:44.915Z,100266.47
2019-05-06T01:14:23.514Z,100264.39
2019-05-06T01:16:55.626Z,100263.64
2019-05-06T01:19:28.638Z,100255.77
2019-05-06T01:22:00.547Z,100254.70
2019-05-06T01:24:35.515Z,100260.81
2019-05-06T01:27:07.424Z,100254.40
2019-05-06T01:29:39.413Z,100254.70
2019-05-06T01:32:11.455Z,100258.27
2019-05-06T01:34:44.646Z,100256.80
2019-05-06T01:37:16.722Z,100253.67
2019-05-06T01:40:07.824Z,100256.41
2019-05-06T01:43:05.120Z,100253.10
2019-05-06T01:45:38.824Z,100254.61
2019-05-06T01:48:11.056Z,100255.62
2019-05-06T01:50:44.519Z,100251.13
2019-05-06T01:53:16.878Z,100254.45
2019-05-06T01:55:48.799Z,100251.31
2019-05-06T01:58:20.697Z,100241.36
2019-05-06T02:00:54.462Z,100238.92
2019-05-06T02:03:26.348Z,100241.29
2019-05-06T02:05:59.928Z,100239.48
2019-05-06T02:08:33.584Z,100230.74
2019-05-06T02:11:05.708Z,100231.94
2019-05-06T02:13:38.117Z,100240.48
2019-05-06T02:16:10.023Z,100235.20
2019-05-06T02:18:41.879Z,100231.26
2019-05-06T02:21:19.880Z,100223.27
2019-05-06T02:23:57.288Z,100228.66
2019-05-06T02:26:29.232Z,100231.58
2019-05-06T02:29:04.270Z,100227.49
2019-05-06T02:31:49.260Z,100226.45
2019-05-06T02:34:40.049Z,100220.70
2019-05-06T02:37:16.537Z,100219.22
2019-05-06T02:39:48.499Z,100219.72
2019-05-06T02:42:20.415Z,100220.32
2019-05-06T02:44:53.969Z,100217.41
2019-05-06T02:47:45.393Z,100218.66
2019-05-06T02:50:20.336Z,100214.09
2019-05-06T02:52:53.762Z,100215.82
2019-05-06T02:55:25.833Z,100210.84
2019-05-06T02:57:57.721Z,100208.68
2019-05-06T03:00:29.651Z,100203.47
2019-05-06T03:03:02.898Z,100203.62
2019-05-06T03:05:35.880Z,100203.26
2019-05-06T03:08:07.856Z,100203.05
2019-05-06T03:10:39.896Z,100208.17
2019-05-06T03:13:14.274Z,100201.62
2019-05-06T03:15:47.636Z,100203.21
2019-05-06T03:18:19.541Z,100213.74
2019-05-06T03:21:13.793Z,100214.41
2019-05-06T03:23:53.957Z,100216.50
2019-05-06T03:26:24.371Z,100222.90
2019-05-06T03:28:56.430Z,100218.11
2019-05-06T03:31:28.381Z,100218.17
2019-05-06T03:34:29.036Z,100221.59
2019-05-06T03:36:40.445Z,100217.01
2019-05-06T03:39:07.823Z,100216.80
2019-05-06T03:41:42.905Z,100212.09
2019-05-06T03:44:16.851Z,100209.11
2019-05-06T03:47:06.379Z,100211.27
2019-05-06T03:49:43.001Z,100214.31
2019-05-06T03:52:15.332Z,100210.30
2019-05-06T03:54:48.144Z,100211.98
2019-05-06T03:57:23.226Z,100214.34
2019-05-06T03:59:55.741Z,100212.61
2019-05-06T04:02:28.210Z,100211.29
2019-05-06T04:05:00.144Z,100213.95
2019-05-06T04:07:34.609Z,100212.75
2019-05-06T04:10:07.351Z,100217.81
2019-05-06T04:12:39.567Z,100217.00
2019-05-06T04:15:14.201Z,100212.92
2019-05-06T04:17:53.973Z,100219.24
2019-05-06T04:20:43.872Z,100214.36
2019-05-06T04:23:46.072Z,100215.47
2019-05-06T04:26:28.410Z,100213.50
2019-05-06T04:29:00.290Z,100211.52
2019-05-06T04:31:33.549Z,100207.09
2019-05-06T04:34:14.106Z,100212.92
2019-05-06T04:36:39.741Z,100210.14
2019-05-06T04:39:13.109Z,100212.17
2019-05-06T04:41:45.662Z,100213.37
2019-05-06T04:44:18.992Z,100210.20
2019-05-06T04:46:54.399Z,100218.23
2019-05-06T04:49:26.228Z,100214.07
2019-05-06T04:51:58.612Z,100218.59
2019-05-06T04:54:33.688Z,100212.48
2019-05-06T04:57:05.261Z,100207.84
2019-05-06T04:59:37.282Z,100206.31
2019-05-06T05:02:09.550Z,100207.19
2019-05-06T05:04:43.330Z,100206.88
2019-05-06T05:07:15.588Z,100207.16
2019-05-06T05:09:48.301Z,100203.44
2019-05-06T05:12:27.031Z,100204.16
2019-05-06T05:15:25.140Z,100203.53
2019-05-06T05:21:32.486Z,100217.75
2019-05-06T05:24:05.003Z,100221.64
2019-05-06T05:26:37.884Z,100227.09
2019-05-06T05:29:12.201Z,100225.42
2019-05-06T05:31:43.783Z,100221.89
2019-05-06T05:34:16.176Z,100220.45
2019-05-06T05:36:48.493Z,100222.61
2019-05-06T05:39:22.249Z,100227.13
2019-05-06T05:41:55.685Z,100223.20
2019-05-06T05:44:32.385Z,100224.19
2019-05-06T05:47:05.606Z,100224.64
2019-05-06T05:50:03.844Z,100224.76
2019-05-06T05:52:35.840Z,100233.86
2019-05-06T05:55:12.159Z,100234.13
2019-05-06T05:57:44.648Z,100230.71
2019-05-06T06:00:17.544Z,100234.03
2019-05-06T06:02:52.857Z,100233.08
2019-05-06T06:05:23.419Z,100233.59
2019-05-06T06:07:55.450Z,100239.16
2019-05-06T06:10:48.709Z,100245.78
2019-05-06T06:13:32.034Z,100242.88
2019-05-06T06:19:42.483Z,100246.31
2019-05-06T06:22:23.426Z,100254.04
2019-05-06T06:25:04.082Z,100258.77
2019-05-06T06:28:12.070Z,100262.30
2019-05-06T06:30:54.576Z,100265.20
2019-05-06T06:33:26.737Z,100262.06
2019-05-06T06:36:23.083Z,100269.58
2019-05-06T06:38:58.911Z,100273.09
2019-05-06T06:41:32.324Z,100249.91
2019-05-06T06:44:07.922Z,100275.39
2019-05-06T06:46:39.921Z,100270.03
2019-05-06T06:49:14.098Z,100268.80
2019-05-06T06:51:46.219Z,100270.54
2019-05-06T06:54:18.253Z,100278.17
2019-05-06T06:57:08.798Z,100268.12
2019-05-06T06:59:59.072Z,100270.63
2019-05-06T07:02:56.196Z,100277.33
2019-05-06T07:05:37.796Z,100280.39
2019-05-06T07:08:09.883Z,100276.03
2019-05-06T07:10:44.740Z,100280.36
2019-05-06T07:13:20.107Z,100274.31
2019-05-06T07:15:52.173Z,100283.77
2019-05-06T07:18:24.445Z,100281.25
2019-05-06T07:21:22.464Z,100284.52
2019-05-06T07:23:54.698Z,100277.00
2019-05-06T07:26:31.792Z,100284.31
2019-05-06T07:29:15.325Z,100282.08
2019-05-06T07:31:39.265Z,100280.83
2019-05-06T07:34:12.064Z,100287.20
2019-05-06T07:36:44.006Z,100285.39
2019-05-06T07:39:15.989Z,100287.72
2019-05-06T07:41:53.454Z,100288.95
2019-05-06T07:44:43.585Z,100293.39
2019-05-06T07:47:29.098Z,100292.33
2019-05-06T07:50:02.383Z,100224.58
2019-05-06T07:52:34.781Z,100299.82
2019-05-06T07:55:07.086Z,100305.97
2019-05-06T07:57:39.091Z,100302.72
2019-05-06T08:00:12.564Z,100304.21
2019-05-06T08:02:46.349Z,100306.88
2019-05-06T08:05:18.231Z,100303.80
2019-05-06T08:07:55.070Z,100308.80
2019-05-06T08:10:25.267Z,100309.39
2019-05-06T08:12:58.308Z,100312.77
2019-05-06T08:15:32.301Z,100316.66
2019-05-06T08:18:03.939Z,100322.14
2019-05-06T08:20:37.025Z,100317.09
2019-05-06T08:23:22.112Z,100317.76
2019-05-06T08:26:08.319Z,100322.19
2019-05-06T08:28:38.626Z,100330.50
2019-05-06T08:31:06.844Z,100332.55
2019-05-06T08:33:38.798Z,100335.84
2019-05-06T08:36:15.093Z,100333.97
2019-05-06T08:38:56.487Z,100330.95
2019-05-06T08:41:29.034Z,100333.74
2019-05-06T08:44:02.708Z,100338.25
2019-05-06T08:46:35.885Z,100346.39
2019-05-06T08:49:07.820Z,100346.47
2019-05-06T08:51:48.546Z,100349.42
2019-05-06T08:54:35.709Z,100346.95
2019-05-06T08:57:07.713Z,100353.29
2019-05-06T08:59:42.317Z,100355.20
2019-05-06T09:02:13.848Z,100348.30
2019-05-06T09:04:45.984Z,100349.31
2019-05-06T09:07:18.077Z,100348.79
2019-05-06T09:09:50.156Z,100345.97
2019-05-06T09:12:22.447Z,100343.31
2019-05-06T09:14:56.274Z,100341.30
2019-05-06T09:17:28.665Z,100345.73
2019-05-06T09:20:02.738Z,100339.22
2019-05-06T09:22:34.546Z,100344.23
2019-05-06T09:25:07.446Z,100344.66
2019-05-06T09:28:12.996Z,100338.63
2019-05-06T09:30:48.111Z,100342.73
2019-05-06T09:33:24.809Z,100340.57
2019-05-06T09:35:56.934Z,100337.91
2019-05-06T09:38:28.993Z,100344.56
2019-05-06T09:41:05.014Z,100354.95
2019-05-06T09:43:36.620Z,100351.16
2019-05-06T09:46:08.522Z,100365.23
2019-05-06T09:48:58.242Z,100363.69
2019-05-06T09:51:32.584Z,100358.69
2019-05-06T09:54:13.044Z,100358.00
2019-05-06T09:56:49.716Z,100359.44
2019-05-06T09:59:22.854Z,100355.95
2019-05-06T10:01:54.959Z,100349.92
2019-05-06T10:04:27.903Z,100350.55
2019-05-06T10:07:00.208Z,100347.02
2019-05-06T10:09:33.725Z,100350.95
2019-05-06T10:12:06.067Z,100344.75
2019-05-06T10:14:38.576Z,100349.79
2019-05-06T10:17:13.248Z,100359.91
2019-05-06T10:19:45.312Z,100357.62
2019-05-06T10:22:17.407Z,100361.63
2019-05-06T10:24:49.289Z,100360.50
2019-05-06T10:27:22.738Z,100356.91
2019-05-06T10:30:03.268Z,100354.08
2019-05-06T10:32:43.561Z,100355.31
2019-05-06T10:35:16.051Z,100348.92
2019-05-06T10:38:15.203Z,100355.15
2019-05-06T10:41:01.003Z,100360.78
2019-05-06T10:44:03.043Z,100361.83
2019-05-06T10:46:34.829Z,100359.60
2019-05-06T10:49:07.594Z,100365.00
2019-05-06T10:51:54.545Z,100368.02
2019-05-06T10:54:26.518Z,100368.91
2019-05-06T10:57:13.836Z,100372.37
2019-05-06T10:59:47.674Z,100369.02
2019-05-06T11:02:38.741Z,100369.75
2019-05-06T11:05:10.899Z,100374.47
2019-05-06T11:07:43.390Z,100380.42
2019-05-06T11:10:25.011Z,100377.83
2019-05-06T11:12:52.317Z,100363.78
2019-05-06T11:15:24.610Z,100361.68
2019-05-06T11:17:56.589Z,100354.70
2019-05-06T11:20:28.587Z,100362.52
2019-05-06T11:23:03.317Z,100357.20
2019-05-06T11:25:37.725Z,100358.66
2019-05-06T11:28:26.668Z,100370.91
2019-05-06T11:31:30.192Z,100356.56
2019-05-06T11:34:28.353Z,100360.92
2019-05-06T11:37:45.938Z,100358.81
2019-05-06T11:40:09.422Z,100356.25
2019-05-06T11:42:43.655Z,100360.52
2019-05-06T11:45:15.403Z,100352.22
2019-05-06T11:47:48.510Z,100359.59
2019-05-06T11:50:21.971Z,100353.35
2019-05-06T11:52:55.925Z,100356.32
2019-05-06T11:55:32.734Z,100349.34
2019-05-06T11:58:03.391Z,100346.84
2019-05-06T12:00:39.422Z,100349.70
2019-05-06T12:03:12.772Z,100348.26
2019-05-06T12:05:44.958Z,100351.48
2019-05-06T12:08:22.071Z,100345.50
2019-05-06T12:10:53.428Z,100343.95
2019-05-06T12:13:26.994Z,100344.67
2019-05-06T12:15:59.276Z,100347.34
2019-05-06T12:18:31.211Z,100350.02
2019-05-06T12:21:11.117Z,100343.58
2019-05-06T12:23:37.141Z,100340.56
2019-05-06T12:26:09.022Z,100341.21
2019-05-06T12:28:43.541Z,100341.55
2019-05-06T12:31:15.846Z,100337.69
2019-05-06T12:33:53.288Z,100333.94
2019-05-06T12:36:25.024Z,100337.34
2019-05-06T12:39:17.100Z,100336.40
2019-05-06T12:42:15.806Z,100335.63
2019-05-06T12:45:05.147Z,100342.84
2019-05-06T12:47:45.449Z,100342.31
2019-05-06T12:50:22.653Z,100342.06
2019-05-06T12:52:57.564Z,100335.77
2019-05-06T12:55:28.100Z,100342.02
2019-05-06T12:58:02.787Z,100330.94
2019-05-06T13:00:34.851Z,100332.92
2019-05-06T13:03:09.526Z,100328.14
2019-05-06T13:05:42.800Z,100323.47
2019-05-06T13:08:20.142Z,100313.82
2019-05-06T13:10:52.594Z,100319.02
2019-05-06T13:13:25.011Z,100318.31
2019-05-06T13:15:57.799Z,100316.34
2019-05-06T13:18:29.688Z,100316.24
2019-05-06T13:21:06.437Z,100319.52
2019-05-06T13:23:46.387Z,100320.74
2019-05-06T13:26:18.272Z,100315.97
2019-05-06T13:28:54.698Z,100317.66
2019-05-06T13:31:26.601Z,100315.38
2019-05-06T13:34:05.288Z,100317.53
2019-05-06T13:36:37.359Z,100313.97
2019-05-06T13:39:14.365Z,100311.42
2019-05-06T13:41:45.269Z,100300.98
2019-05-06T13:44:18.629Z,100302.34
2019-05-06T13:46:54.171Z,100304.52
2019-05-06T13:49:48.255Z,100297.55
2019-05-06T13:52:25.265Z,100296.89
2019-05-06T13:54:57.298Z,100301.78
2019-05-06T13:57:29.396Z,100296.38
2019-05-06T14:00:03.254Z,100285.55
2019-05-06T14:02:45.884Z,100284.28
2019-05-06T14:05:18.557Z,100291.02
2019-05-06T14:07:52.774Z,100283.54
2019-05-06T14:10:24.201Z,100278.33
2019-05-06T14:12:56.603Z,100274.73
2019-05-06T14:15:28.633Z,100277.98
2019-05-06T14:18:02.653Z,100276.89
2019-05-06T14:20:34.201Z,100277.44
2019-05-06T14:23:06.093Z,100268.30
2019-05-06T14:25:55.633Z,100270.63
2019-05-06T14:28:48.375Z,100258.14
2019-05-06T14:31:27.050Z,100258.03
2019-05-06T14:34:01.674Z,100256.27
2019-05-06T14:36:33.708Z,100267.94
2019-05-06T14:39:08.730Z,100268.17
2019-05-06T14:41:44.514Z,100264.42
2019-05-06T14:44:16.637Z,100265.09
2019-05-06T14:47:19.781Z,100255.55
2019-05-06T14:49:52.946Z,100251.94
2019-05-06T14:52:25.434Z,100255.65
2019-05-06T14:55:07.365Z,100246.53
2019-05-06T14:57:42.692Z,100250.34
2019-05-06T15:00:16.655Z,100248.93
2019-05-06T15:02:48.625Z,100256.73
2019-05-06T15:05:22.640Z,100257.97
2019-05-06T15:07:54.327Z,100257.28
2019-05-06T15:10:26.632Z,100261.73
2019-05-06T15:12:58.556Z,100259.08
2019-05-06T15:15:32.416Z,100253.87
2019-05-06T15:18:06.470Z,100264.02
2019-05-06T15:20:42.496Z,100265.63
2019-05-06T15:23:15.026Z,100263.03
2019-05-06T15:25:46.995Z,100262.77
2019-05-06T15:28:18.875Z,100260.34
2019-05-06T15:31:03.299Z,100264.27
2019-05-06T15:33:40.548Z,100265.17
2019-05-06T15:36:27.347Z,100279.88
2019-05-06T15:38:59.332Z,100283.20
2019-05-06T15:41:32.307Z,100285.20
2019-05-06T15:44:05.510Z,100282.91
2019-05-06T15:46:39.496Z,100269.82
2019-05-06T15:49:15.555Z,100262.89
2019-05-06T15:51:49.393Z,100257.58
2019-05-06T15:54:22.662Z,100269.52
2019-05-06T15:56:56.668Z,100276.95
2019-05-06T15:59:28.612Z,100277.89
2019-05-06T16:02:01.900Z,100270.27
2019-05-06T16:04:35.711Z,100270.02
2019-05-06T16:07:07.762Z,100280.06
2019-05-06T16:09:39.775Z,100277.61
2019-05-06T16:12:17.041Z,100277.34
2019-05-06T16:14:48.935Z,100273.19
2019-05-06T16:17:23.579Z,100263.07
2019-05-06T16:19:55.884Z,100265.45
2019-05-06T16:22:27.746Z,100265.22
2019-05-06T16:25:06.144Z,100268.48
2019-05-06T16:27:43.814Z,100273.86
2019-05-06T16:30:16.395Z,100279.45
2019-05-06T16:32:48.321Z,100294.28
2019-05-06T16:35:22.455Z,100298.56
2019-05-06T16:37:54.050Z,100298.91
2019-05-06T16:40:26.129Z,100296.03
2019-05-06T16:42:58.024Z,100304.52
2019-05-06T16:45:30.271Z,100301.91
2019-05-06T16:48:03.622Z,100293.38
2019-05-06T16:50:39.577Z,100301.54
2019-05-06T16:53:12.193Z,100296.08
2019-05-06T16:55:59.009Z,100292.13
2019-05-06T16:58:36.358Z,100294.74
2019-05-06T17:01:14.890Z,100305.42
2019-05-06T17:04:14.592Z,100306.75
2019-05-06T17:06:47.357Z,100310.40
2019-05-06T17:09:26.929Z,100308.89
2019-05-06T17:11:59.445Z,100308.88
2019-05-06T17:14:34.376Z,100310.06
2019-05-06T17:17:07.271Z,100309.72
2019-05-06T17:19:43.467Z,100313.02
2019-05-06T17:22:15.373Z,100317.70
2019-05-06T17:24:48.638Z,100319.73
2019-05-06T17:27:23.559Z,100326.36
2019-05-06T17:30:17.515Z,100325.05
2019-05-06T17:32:52.642Z,100337.82
2019-05-06T17:35:25.345Z,100350.97
2019-05-06T17:38:13.117Z,100347.42
2019-05-06T17:40:46.318Z,100346.69
2019-05-06T17:43:22.523Z,100342.56
2019-05-06T17:46:02.868Z,100345.33
2019-05-06T17:48:46.035Z,100267.05
2019-05-06T17:51:36.984Z,100352.21
2019-05-06T17:54:12.320Z,100342.72
2019-05-06T17:56:44.602Z,100337.08
2019-05-06T17:59:16.511Z,100334.87
2019-05-06T18:01:53.042Z,100319.77
2019-05-06T18:04:24.365Z,100324.91
2019-05-06T18:06:56.948Z,100324.08
2019-05-06T18:09:29.355Z,100331.80
2019-05-06T18:12:03.152Z,100326.16
2019-05-06T18:14:35.191Z,100333.34
2019-05-06T18:17:07.326Z,100333.17
2019-05-06T18:19:39.294Z,100333.06
2019-05-06T18:22:13.114Z,100330.27
2019-05-06T18:24:48.062Z,100327.66
2019-05-06T18:27:22.611Z,100329.05
2019-05-06T18:29:55.109Z,100322.91
2019-05-06T18:32:27.082Z,100325.44
2019-05-06T18:34:59.159Z,100326.02
2019-05-06T18:37:33.168Z,100328.36
2019-05-06T18:40:06.979Z,100323.94
2019-05-06T18:42:42.987Z,100319.98
2019-05-06T18:45:14.780Z,100322.88
2019-05-06T18:47:46.799Z,100314.62
2019-05-06T18:50:18.777Z,100313.17
2019-05-06T18:52:52.835Z,100307.65
2019-05-06T18:55:25.991Z,100312.66
2019-05-06T18:58:02.080Z,100314.69
2019-05-06T19:00:34.852Z,100315.05
2019-05-06T19:03:06.848Z,100313.71
2019-05-06T19:05:39.672Z,100319.00
2019-05-06T19:08:36.698Z,100314.86
2019-05-06T19:11:11.961Z,100322.55
2019-05-06T19:13:44.022Z,100322.92
2019-05-06T19:16:16.396Z,100328.06
2019-05-06T19:18:52.167Z,100328.65
2019-05-06T19:21:24.499Z,100333.58
2019-05-06T19:23:57.549Z,100322.27
2019-05-06T19:26:29.472Z,100317.95
2019-05-06T19:29:04.618Z,100315.08
2019-05-06T19:31:36.759Z,100310.48
2019-05-06T19:34:09.523Z,100314.67
2019-05-06T19:36:42.198Z,100321.84
2019-05-06T19:39:16.729Z,100326.86
2019-05-06T19:41:48.621Z,100327.39
2019-05-06T19:44:22.052Z,100327.39
2019-05-06T19:46:54.351Z,100327.31
2019-05-06T19:49:26.716Z,100322.44
2019-05-06T19:52:00.041Z,100323.34
2019-05-06T19:54:34.334Z,100326.87
2019-05-06T19:57:06.469Z,100335.61
2019-05-06T19:59:42.369Z,100339.84
2019-05-06T20:02:14.186Z,100356.91
2019-05-06T20:04:48.510Z,100359.56
2019-05-06T20:07:48.611Z,100357.84
2019-05-06T20:10:42.376Z,100356.70
2019-05-06T20:13:15.845Z,100370.14
2019-05-06T20:15:47.764Z,100372.59
2019-05-06T20:18:19.753Z,100368.58
2019-05-06T20:20:52.791Z,100367.59
2019-05-06T20:23:25.415Z,100365.43
2019-05-06T20:25:59.879Z,100359.19
2019-05-06T20:28:33.586Z,100359.34
2019-05-06T20:31:07.326Z,100355.46
2019-05-06T20:33:42.148Z,100355.19
2019-05-06T20:36:13.906Z,100364.50
2019-05-06T20:38:50.246Z,100353.66
2019-05-06T20:41:25.770Z,100375.42
2019-05-06T20:43:57.731Z,100377.62
2019-05-06T20:46:29.666Z,100377.09
2019-05-06T20:49:02.581Z,100377.30
2019-05-06T20:51:36.140Z,100381.38
2019-05-06T20:54:08.160Z,100383.54
2019-05-06T20:56:44.777Z,100381.82
2019-05-06T20:59:16.662Z,100374.09
2019-05-06T21:01:48.626Z,100376.58
2019-05-06T21:04:22.673Z,100378.74
2019-05-06T21:06:55.448Z,100385.06
2019-05-06T21:09:27.479Z,100386.59
2019-05-06T21:11:59.454Z,100388.23
2019-05-06T21:14:32.389Z,100389.83
2019-05-06T21:17:06.158Z,100379.47
2019-05-06T21:19:39.965Z,100382.30
2019-05-06T21:22:13.278Z,100387.75
2019-05-06T21:24:48.206Z,100395.67
2019-05-06T21:27:22.991Z,100398.47
2019-05-06T21:29:55.515Z,100401.19
2019-05-06T21:32:32.977Z,100386.94
2019-05-06T21:35:07.878Z,100389.86
2019-05-06T21:37:42.080Z,100389.06
2019-05-06T21:40:15.791Z,100391.34
2019-05-06T21:42:47.717Z,100393.78
2019-05-06T21:45:22.912Z,100391.10
2019-05-06T21:47:55.342Z,100378.95
2019-05-06T21:50:27.441Z,100380.19
2019-05-06T21:53:02.735Z,100377.22
2019-05-06T21:55:37.210Z,100372.78
2019-05-06T21:58:09.423Z,100370.50
2019-05-06T22:01:02.352Z,100370.34
2019-05-06T22:03:45.458Z,100370.70
2019-05-06T22:06:17.522Z,100372.22
2019-05-06T22:08:52.067Z,100372.14
2019-05-06T22:11:24.545Z,100370.39
2019-05-06T22:14:01.152Z,100368.78
2019-05-06T22:16:32.320Z,100362.94
2019-05-06T22:19:08.477Z,100365.10
2019-05-06T22:22:03.495Z,100358.07
2019-05-06T22:24:43.752Z,100354.19
2019-05-06T22:27:16.537Z,100351.55
2019-05-06T22:29:48.856Z,100347.79
2019-05-06T22:32:22.940Z,100345.03
2019-05-06T22:34:54.787Z,100353.55
2019-05-06T22:37:26.780Z,100347.38
2019-05-06T22:40:02.217Z,100351.34
2019-05-06T22:42:35.490Z,100350.10
2019-05-06T22:45:07.962Z,100346.14
2019-05-06T22:47:41.956Z,100354.52
2019-05-06T22:50:14.153Z,100357.17
2019-05-06T22:52:52.873Z,100355.50
2019-05-06T22:55:25.534Z,100342.52
2019-05-06T22:57:58.851Z,100338.15
2019-05-06T23:00:33.524Z,100338.70
2019-05-06T23:03:09.606Z,100335.78
2019-05-06T23:05:42.332Z,100336.47
2019-05-06T23:08:20.209Z,100338.63
2019-05-06T23:10:52.912Z,100341.63
2019-05-06T23:13:27.260Z,100341.82
2019-05-06T23:15:59.402Z,100349.82
2019-05-06T23:18:34.251Z,100341.27
2019-05-06T23:21:06.305Z,100342.94
2019-05-06T23:23:48.308Z,100338.75
2019-05-06T23:26:22.858Z,100337.39
2019-05-06T23:28:56.665Z,100330.91
2019-05-06T23:31:28.538Z,100327.16
2019-05-06T23:34:04.958Z,100333.55
2019-05-06T23:37:23.120Z,100343.55
2019-05-06T23:40:42.512Z,100340.56
2019-05-06T23:43:50.240Z,100332.23
2019-05-06T23:46:57.754Z,100329.59
2019-05-06T23:50:06.302Z,100320.55
2019-05-06T23:53:13.455Z,100321.39
2019-05-06T23:56:20.890Z,100313.67
2019-05-06T23:58:52.824Z,100315.98
